Time;durP1;ratioP1;P1;durP2;ratioP2;P2;SDS_P1;SDS_P2;PMS_P1;PMS_P2;Temp;Humidity;BMP_temperature;BMP_pressure;BME280_temperature;BME280_humidity;BME280_pressure;Samples;Min_cycle;Max_cycle;Signal;HPM_P1;HPM_P2
2022/11/11 00:01:44;;;;;;;16.52;7.60;;;6.10;99.90;;;;;;4989078;28;20101;-67
2022/11/11 00:04:10;;;;;;;22.48;7.65;;;6.00;99.90;;;;;;4989160;28;20046;-67
2022/11/11 00:06:35;;;;;;;20.00;7.78;;;6.00;99.90;;;;;;4984262;28;20022;-67
2022/11/11 00:09:01;;;;;;;20.67;9.07;;;6.00;99.90;;;;;;4981067;28;20031;-67
2022/11/11 00:11:26;;;;;;;19.58;7.65;;;6.00;99.90;;;;;;4982039;28;21674;-67
2022/11/11 00:13:53;;;;;;;20.88;8.27;;;6.00;99.90;;;;;;4983155;28;20022;-67
2022/11/11 00:16:19;;;;;;;26.48;8.30;;;6.00;99.90;;;;;;4988589;28;20040;-65
2022/11/11 00:27:16;;;;;;;27.50;8.02;;;5.80;99.90;;;;;;4981345;28;20165;-67
2022/11/11 00:29:45;;;;;;;22.20;7.05;;;5.80;99.90;;;;;;4981976;28;20083;-67
2022/11/11 00:32:23;;;;;;;22.95;8.45;;;5.80;99.90;;;;;;4982751;28;20046;-67
2022/11/11 00:37:34;;;;;;;23.73;7.55;;;5.80;99.90;;;;;;4982548;28;20042;-67
2022/11/11 00:39:59;;;;;;;18.83;8.57;;;5.80;99.90;;;;;;4984735;28;20065;-67
2022/11/11 00:42:25;;;;;;;25.67;8.15;;;5.80;99.90;;;;;;4981903;28;20045;-67
2022/11/11 00:44:51;;;;;;;21.40;7.47;;;5.80;99.90;;;;;;4977719;28;20078;-68
2022/11/11 00:52:46;;;;;;;26.70;8.63;;;5.90;99.90;;;;;;4970028;28;20061;-66
2022/11/11 00:55:13;;;;;;;22.23;8.05;;;5.90;99.90;;;;;;4988078;28;20062;-67
2022/11/11 00:57:39;;;;;;;20.02;7.78;;;5.90;99.90;;;;;;4985444;28;20042;-67
2022/11/11 01:00:05;;;;;;;23.27;9.43;;;5.90;99.90;;;;;;4988488;28;20397;-67
2022/11/11 01:02:30;;;;;;;19.48;8.73;;;5.80;99.90;;;;;;4992313;28;20058;-67
2022/11/11 01:04:56;;;;;;;25.75;8.73;;;5.80;99.90;;;;;;4986148;28;20060;-66
2022/11/11 01:07:22;;;;;;;17.40;8.75;;;5.80;99.90;;;;;;4990141;28;20026;-67
2022/11/11 01:09:47;;;;;;;22.85;9.63;;;5.80;99.90;;;;;;4984704;28;20033;-67
2022/11/11 01:12:13;;;;;;;16.48;8.32;;;5.80;99.90;;;;;;4986662;28;20492;-67
2022/11/11 01:14:39;;;;;;;21.83;8.80;;;5.80;99.90;;;;;;4989654;28;20110;-68
2022/11/11 01:17:05;;;;;;;14.32;7.47;;;5.80;99.90;;;;;;4979137;28;20125;-67
2022/11/11 01:19:31;;;;;;;17.58;8.13;;;5.80;99.90;;;;;;4989213;28;20484;-66
2022/11/11 01:21:58;;;;;;;21.80;7.85;;;5.70;99.90;;;;;;4983420;28;22156;-68
2022/11/11 01:24:23;;;;;;;27.23;7.95;;;5.70;99.90;;;;;;4990391;28;20101;-67
2022/11/11 01:26:49;;;;;;;16.65;7.88;;;5.70;99.90;;;;;;4984090;28;20716;-67
2022/11/11 01:29:16;;;;;;;19.40;7.53;;;5.70;99.90;;;;;;4988735;28;20142;-66
2022/11/11 01:31:42;;;;;;;26.15;8.88;;;5.70;99.90;;;;;;4977055;28;20034;-66
2022/11/11 01:34:07;;;;;;;20.77;8.20;;;5.70;99.90;;;;;;4980360;28;20045;-67
2022/11/11 01:36:33;;;;;;;33.28;8.88;;;5.60;99.90;;;;;;4979543;28;20035;-67
2022/11/11 01:38:59;;;;;;;23.67;7.85;;;5.60;99.90;;;;;;4984923;28;20574;-69
2022/11/11 01:41:35;;;;;;;28.42;8.35;;;5.60;99.90;;;;;;4987267;28;20061;-67
2022/11/11 01:44:10;;;;;;;29.55;8.65;;;5.60;99.90;;;;;;4985246;28;20026;-67
2022/11/11 01:46:52;;;;;;;21.60;8.30;;;5.60;99.90;;;;;;4977525;28;20034;-67
2022/11/11 01:49:56;;;;;;;20.38;7.28;;;5.50;99.90;;;;;;4976894;28;20041;-67
2022/11/11 01:52:32;;;;;;;25.35;8.60;;;5.50;99.90;;;;;;4973043;28;20408;-67
2022/11/11 01:55:05;;;;;;;25.88;7.63;;;5.50;99.90;;;;;;4982089;28;20043;-67
2022/11/11 01:57:38;;;;;;;19.80;8.68;;;5.50;99.90;;;;;;4981203;28;20045;-67
2022/11/11 02:00:09;;;;;;;27.40;9.65;;;5.40;99.90;;;;;;4982381;28;20023;-67
2022/11/11 02:02:44;;;;;;;20.88;8.85;;;5.40;99.90;;;;;;4980434;28;20031;-68
2022/11/11 02:08:03;;;;;;;23.98;8.27;;;5.40;99.90;;;;;;4986747;28;20100;-67
2022/11/11 02:10:31;;;;;;;20.52;8.50;;;5.40;99.90;;;;;;4990198;28;20034;-68
2022/11/11 02:15:41;;;;;;;36.65;8.70;;;5.40;99.90;;;;;;4984459;28;20076;-68
2022/11/11 02:18:07;;;;;;;20.33;7.90;;;5.40;99.90;;;;;;4984720;28;20042;-67
2022/11/11 02:20:41;;;;;;;26.20;8.32;;;5.40;99.90;;;;;;4979796;28;20078;-66
2022/11/11 02:23:31;;;;;;;29.17;10.25;;;5.40;99.90;;;;;;4980175;28;20038;-67
2022/11/11 02:26:00;;;;;;;18.58;7.53;;;5.40;99.90;;;;;;4975359;28;20420;-67
2022/11/11 02:28:26;;;;;;;18.98;8.30;;;5.40;99.90;;;;;;4986108;28;20552;-67
2022/11/11 02:30:52;;;;;;;23.60;8.32;;;5.40;99.90;;;;;;4982321;28;20023;-68
2022/11/11 02:33:17;;;;;;;29.67;8.18;;;5.40;99.90;;;;;;4977358;28;20531;-67
2022/11/11 02:35:56;;;;;;;21.50;7.47;;;5.40;99.90;;;;;;4979154;28;20041;-67
2022/11/11 02:38:23;;;;;;;18.80;7.85;;;5.40;99.90;;;;;;4980102;28;20385;-67
2022/11/11 02:43:33;;;;;;;29.20;8.60;;;5.40;99.90;;;;;;4979831;28;20570;-67
2022/11/11 02:46:01;;;;;;;29.25;8.85;;;5.30;99.90;;;;;;4982051;28;20050;-67
2022/11/11 02:48:27;;;;;;;21.35;7.53;;;5.40;99.90;;;;;;4973381;28;20038;-66
2022/11/11 02:50:52;;;;;;;23.33;8.43;;;5.40;99.90;;;;;;4988426;28;20567;-67
2022/11/11 02:53:18;;;;;;;26.63;8.77;;;5.40;99.90;;;;;;4987661;28;20073;-67
2022/11/11 02:55:44;;;;;;;19.27;7.97;;;5.40;99.90;;;;;;4978931;28;20031;-67
2022/11/11 02:58:10;;;;;;;20.38;8.07;;;5.40;99.90;;;;;;4982743;28;20890;-66
2022/11/11 03:00:35;;;;;;;21.73;8.70;;;5.40;99.90;;;;;;4980712;28;20038;-67
2022/11/11 03:03:01;;;;;;;26.27;8.52;;;5.40;99.90;;;;;;4988167;28;20491;-68
2022/11/11 03:05:26;;;;;;;17.33;7.25;;;5.30;99.90;;;;;;4980520;28;20732;-68
2022/11/11 03:07:52;;;;;;;24.77;8.38;;;5.30;99.90;;;;;;4985700;28;20396;-67
2022/11/11 03:10:17;;;;;;;22.30;8.18;;;5.30;99.90;;;;;;4976247;28;20031;-67
2022/11/11 03:12:43;;;;;;;20.77;8.13;;;5.30;99.90;;;;;;4981026;28;20161;-68
2022/11/11 03:15:09;;;;;;;24.00;8.60;;;5.30;99.90;;;;;;4982828;28;20480;-68
2022/11/11 03:17:40;;;;;;;30.25;9.23;;;5.20;99.90;;;;;;4982100;28;20456;-68
2022/11/11 03:23:03;;;;;;;21.33;7.63;;;5.20;99.90;;;;;;4975572;28;20515;-68
2022/11/11 03:25:38;;;;;;;26.63;8.65;;;5.20;99.90;;;;;;4982375;28;20029;-68
2022/11/11 03:28:14;;;;;;;16.92;7.78;;;5.20;99.90;;;;;;4979844;28;20062;-68
2022/11/11 03:30:45;;;;;;;27.42;8.77;;;5.20;99.90;;;;;;4985937;28;20109;-68
2022/11/11 03:33:11;;;;;;;31.77;10.18;;;5.20;99.90;;;;;;4975290;28;20043;-68
2022/11/11 03:35:38;;;;;;;29.23;9.57;;;5.30;99.90;;;;;;4978409;28;20484;-67
2022/11/11 03:38:23;;;;;;;29.55;9.55;;;5.30;99.90;;;;;;4974766;28;20031;-68
2022/11/11 03:40:56;;;;;;;26.65;9.02;;;5.30;99.90;;;;;;4988960;28;20057;-68
2022/11/11 03:43:24;;;;;;;33.45;9.05;;;5.30;99.90;;;;;;4983891;28;20034;-68
2022/11/11 03:45:55;;;;;;;22.35;9.18;;;5.30;99.90;;;;;;4987747;28;20026;-67
2022/11/11 03:48:21;;;;;;;33.22;9.95;;;5.30;99.90;;;;;;4983859;28;20038;-68
2022/11/11 03:50:47;;;;;;;22.15;9.43;;;5.30;99.90;;;;;;4981917;28;20086;-67
2022/11/11 03:53:13;;;;;;;29.60;9.48;;;5.30;99.90;;;;;;4987739;28;20026;-67
2022/11/11 03:55:40;;;;;;;21.80;8.57;;;5.20;99.90;;;;;;4988494;28;20062;-67
2022/11/11 03:58:06;;;;;;;33.58;10.20;;;5.20;99.90;;;;;;4988219;28;20061;-67
2022/11/11 04:00:31;;;;;;;27.48;9.65;;;5.20;99.90;;;;;;4988725;28;20022;-68
2022/11/11 04:11:38;;;;;;;20.90;8.50;;;5.10;99.90;;;;;;4979883;28;20467;-67
2022/11/11 04:16:52;;;;;;;27.98;9.35;;;5.10;99.90;;;;;;4988370;28;20041;-68
2022/11/11 04:22:02;;;;;;;23.45;8.52;;;5.10;99.90;;;;;;4984464;28;20033;-67
2022/11/11 04:27:14;;;;;;;31.50;9.68;;;5.10;99.90;;;;;;4985412;28;20174;-68
2022/11/11 04:29:41;;;;;;;24.83;9.00;;;5.10;99.90;;;;;;4982578;28;20408;-68
2022/11/11 04:34:57;;;;;;;30.63;10.20;;;5.10;99.90;;;;;;4988674;28;20042;-68
2022/11/11 04:37:25;;;;;;;21.30;9.13;;;5.00;99.90;;;;;;4984962;28;20031;-68
2022/11/11 04:42:36;;;;;;;26.65;10.25;;;5.00;99.90;;;;;;4989916;28;20102;-67
2022/11/11 04:47:55;;;;;;;21.60;9.52;;;5.00;99.90;;;;;;4983998;28;20078;-68
2022/11/11 04:50:26;;;;;;;24.58;9.52;;;5.10;99.90;;;;;;4986399;28;20026;-68
2022/11/11 04:52:52;;;;;;;22.25;8.75;;;5.10;99.90;;;;;;4977915;28;20512;-68
2022/11/11 04:58:02;;;;;;;30.58;9.15;;;5.20;99.90;;;;;;4982241;28;20037;-68
2022/11/11 05:00:28;;;;;;;23.40;9.80;;;5.30;99.90;;;;;;4985644;28;20109;-67
2022/11/11 05:08:57;;;;;;;29.35;9.85;;;5.30;99.90;;;;;;4975952;28;20045;-68
2022/11/11 05:11:15;;;;;;;27.13;9.75;;;5.40;99.90;;;;;;4982879;28;20034;-67
2022/11/11 05:22:25;;;;;;;26.70;9.52;;;5.40;99.90;;;;;;4981154;28;20182;-68
2022/11/11 05:27:35;;;;;;;23.77;9.48;;;5.40;99.90;;;;;;4976798;28;20081;-68
2022/11/11 05:30:00;;;;;;;26.98;9.07;;;5.40;99.90;;;;;;4977866;28;20035;-68
2022/11/11 05:32:26;;;;;;;30.05;9.85;;;5.40;99.90;;;;;;4975083;28;20485;-68
2022/11/11 05:34:52;;;;;;;23.77;9.07;;;5.50;99.90;;;;;;4986663;28;20041;-67
2022/11/11 05:37:18;;;;;;;29.02;9.00;;;5.40;99.90;;;;;;4990500;28;20105;-67
2022/11/11 05:39:44;;;;;;;27.73;9.10;;;5.40;99.90;;;;;;4984068;28;20113;-68
2022/11/11 05:42:10;;;;;;;23.98;9.55;;;5.30;99.90;;;;;;4986797;28;20370;-68
2022/11/11 05:44:36;;;;;;;25.55;9.07;;;5.30;99.90;;;;;;4989431;28;20031;-68
2022/11/11 05:47:02;;;;;;;20.63;8.63;;;5.30;99.90;;;;;;4988553;28;20105;-68
2022/11/11 05:49:28;;;;;;;23.10;8.18;;;5.20;99.90;;;;;;4982346;28;20042;-68
2022/11/11 05:51:54;;;;;;;36.05;9.55;;;5.20;99.90;;;;;;4978131;28;20026;-68
2022/11/11 05:54:20;;;;;;;25.67;9.02;;;5.30;99.90;;;;;;4988793;28;20026;-68
2022/11/11 05:56:46;;;;;;;23.92;9.85;;;5.30;99.90;;;;;;4972279;28;20073;-68
2022/11/11 05:59:11;;;;;;;25.58;9.07;;;5.30;99.90;;;;;;4974851;28;20122;-67
2022/11/11 06:01:37;;;;;;;26.75;9.98;;;5.40;99.90;;;;;;4989196;28;20113;-67
2022/11/11 06:04:04;;;;;;;28.45;9.10;;;5.40;99.90;;;;;;4985127;28;20037;-68
2022/11/11 06:06:30;;;;;;;29.08;10.82;;;5.40;99.90;;;;;;4990433;28;20088;-68
2022/11/11 06:08:56;;;;;;;29.35;9.90;;;5.40;99.90;;;;;;4990109;28;20150;-68
2022/11/11 06:11:22;;;;;;;24.55;9.15;;;5.30;99.90;;;;;;4990635;28;20569;-68
2022/11/11 06:13:48;;;;;;;27.95;10.52;;;5.30;99.90;;;;;;4976998;28;20050;-67
2022/11/11 06:16:14;;;;;;;23.77;9.73;;;5.40;99.90;;;;;;4990072;28;20062;-68
2022/11/11 06:18:39;;;;;;;29.00;10.15;;;5.40;99.90;;;;;;4974330;28;20031;-68
2022/11/11 06:21:05;;;;;;;22.77;9.48;;;5.40;99.90;;;;;;4985247;28;20550;-68
2022/11/11 06:23:31;;;;;;;23.67;9.35;;;5.40;99.90;;;;;;4986321;28;20640;-67
2022/11/11 06:26:12;;;;;;;31.83;9.95;;;5.40;99.90;;;;;;4983316;28;20826;-68
2022/11/11 06:28:48;;;;;;;25.67;10.20;;;5.40;99.90;;;;;;4984670;28;20377;-68
2022/11/11 06:31:16;;;;;;;27.40;9.75;;;5.40;99.90;;;;;;4982533;28;20022;-67
2022/11/11 06:33:42;;;;;;;27.38;9.52;;;5.40;99.90;;;;;;4982361;28;20031;-66
2022/11/11 06:36:12;;;;;;;32.05;9.43;;;5.50;99.90;;;;;;4982985;28;20029;-67
2022/11/11 06:38:38;;;;;;;25.73;9.52;;;5.50;99.90;;;;;;4985814;28;20423;-67
2022/11/11 06:41:03;;;;;;;26.58;9.27;;;5.40;99.90;;;;;;4989733;28;20023;-67
2022/11/11 06:43:29;;;;;;;22.23;10.00;;;5.40;99.90;;;;;;4980107;28;20035;-67
2022/11/11 06:45:55;;;;;;;23.33;8.57;;;5.40;99.90;;;;;;4984670;28;20546;-68
2022/11/11 06:48:22;;;;;;;25.77;9.80;;;5.40;99.90;;;;;;4988408;28;20031;-67
2022/11/11 06:50:48;;;;;;;20.67;8.75;;;5.40;99.90;;;;;;4984132;28;20042;-68
2022/11/11 06:53:16;;;;;;;27.90;9.10;;;5.40;99.90;;;;;;4987305;28;20030;-68
2022/11/11 06:55:42;;;;;;;31.50;8.43;;;5.30;99.90;;;;;;4974085;28;20030;-67
2022/11/11 06:58:16;;;;;;;26.35;9.60;;;5.30;99.90;;;;;;4986145;28;20034;-68
2022/11/11 07:00:42;;;;;;;;;;;5.40;99.90;;;;;;4987086;28;20027;-67
2022/11/11 07:03:11;;;;;;;18.13;8.35;;;5.50;99.90;;;;;;4987830;28;20008;-68
2022/11/11 07:05:37;;;;;;;26.00;9.40;;;5.60;99.90;;;;;;4976203;28;20492;-67
2022/11/11 07:08:10;;;;;;;27.58;9.60;;;5.60;99.90;;;;;;4977750;28;20134;-68
2022/11/11 07:10:38;;;;;;;24.30;10.13;;;5.60;99.90;;;;;;4987405;28;20029;-68
2022/11/11 07:13:05;;;;;;;29.90;10.02;;;5.70;99.90;;;;;;4984814;28;20033;-68
2022/11/11 07:15:31;;;;;;;28.40;10.80;;;5.80;99.90;;;;;;4985908;28;20063;-68
2022/11/11 07:17:56;;;;;;;27.10;10.35;;;5.80;99.90;;;;;;4987548;28;20636;-67
2022/11/11 07:20:22;;;;;;;23.52;9.93;;;5.80;99.90;;;;;;4992528;28;20026;-68
2022/11/11 07:22:48;;;;;;;24.95;9.95;;;5.90;99.90;;;;;;4994913;28;20403;-68
2022/11/11 07:25:13;;;;;;;23.73;8.93;;;5.90;99.90;;;;;;4984152;28;20031;-68
2022/11/11 07:27:40;;;;;;;20.80;9.52;;;5.90;99.90;;;;;;4978152;28;20101;-68
2022/11/11 07:30:07;;;;;;;19.50;9.18;;;5.90;99.90;;;;;;4978203;28;20069;-68
2022/11/11 07:32:33;;;;;;;22.77;9.43;;;6.00;99.90;;;;;;4990321;28;20030;-67
2022/11/11 07:34:59;;;;;;;29.45;9.23;;;6.10;99.90;;;;;;4987228;28;20018;-68
2022/11/11 07:37:25;;;;;;;20.25;8.45;;;6.20;99.90;;;;;;4984629;28;20082;-68
2022/11/11 07:39:50;;;;;;;20.02;9.07;;;6.20;99.90;;;;;;4986244;28;20035;-68
2022/11/11 07:42:16;;;;;;;21.92;9.23;;;6.30;99.90;;;;;;4985730;28;20484;-68
2022/11/11 07:44:42;;;;;;;24.85;9.00;;;6.40;99.90;;;;;;4984102;28;20023;-68
2022/11/11 07:47:08;;;;;;;20.88;9.25;;;6.40;99.90;;;;;;4986071;28;20439;-68
2022/11/11 07:49:33;;;;;;;18.80;8.55;;;6.50;99.90;;;;;;4982594;28;20077;-68
2022/11/11 07:51:59;;;;;;;20.90;8.38;;;6.60;99.90;;;;;;4986051;28;20477;-68
2022/11/11 07:54:25;;;;;;;18.55;7.85;;;6.60;99.90;;;;;;4982343;28;20022;-68
2022/11/11 07:56:50;;;;;;;16.63;7.93;;;6.70;99.90;;;;;;4975935;28;20023;-68
2022/11/11 07:59:16;;;;;;;16.05;7.45;;;6.70;99.90;;;;;;4982433;28;20062;-67
2022/11/11 08:01:42;;;;;;;16.77;8.18;;;6.80;99.90;;;;;;4958008;28;20043;-67
2022/11/11 08:04:07;;;;;;;15.10;7.75;;;6.80;99.90;;;;;;4981567;28;20037;-67
2022/11/11 08:06:33;;;;;;;15.32;7.90;;;6.90;99.90;;;;;;4983565;28;20050;-68
2022/11/11 08:08:58;;;;;;;16.38;6.40;;;7.00;99.90;;;;;;4984218;28;20037;-68
2022/11/11 08:14:08;;;;;;;14.52;7.05;;;7.10;99.90;;;;;;4991219;28;20491;-67
2022/11/11 08:16:34;;;;;;;15.65;6.93;;;7.10;99.90;;;;;;4984711;28;20058;-68
2022/11/11 08:19:00;;;;;;;14.20;7.28;;;7.20;99.90;;;;;;4986495;28;20547;-68
2022/11/11 08:21:26;;;;;;;12.85;6.75;;;7.30;99.90;;;;;;4982859;28;20037;-68
2022/11/11 08:23:52;;;;;;;13.00;6.63;;;7.40;99.90;;;;;;4991465;28;20073;-67
2022/11/11 08:26:20;;;;;;;19.70;7.28;;;7.40;99.90;;;;;;4977423;28;20033;-67
2022/11/11 08:28:46;;;;;;;12.45;6.45;;;7.50;99.90;;;;;;4981989;28;20026;-68
2022/11/11 08:31:12;;;;;;;15.80;7.93;;;7.60;99.90;;;;;;4984020;28;20031;-68
2022/11/11 08:33:38;;;;;;;17.10;7.38;;;7.60;99.90;;;;;;4974317;28;20448;-67
2022/11/11 08:36:05;;;;;;;12.32;7.00;;;7.70;99.90;;;;;;4991655;28;20030;-68
2022/11/11 08:38:31;;;;;;;14.20;6.55;;;7.70;99.90;;;;;;4974794;28;20482;-67
2022/11/11 08:41:01;;;;;;;21.35;8.30;;;7.80;99.90;;;;;;4988838;28;20153;-68
2022/11/11 08:43:31;;;;;;;18.98;6.75;;;7.80;99.90;;;;;;4980557;28;20115;-68
2022/11/11 08:46:02;;;;;;;11.82;5.85;;;7.90;99.90;;;;;;4977449;28;20027;-67
2022/11/11 08:48:31;;;;;;;12.38;6.85;;;7.90;99.90;;;;;;4985907;28;20038;-67
2022/11/11 08:50:58;;;;;;;12.75;6.18;;;8.00;99.90;;;;;;4983506;28;20027;-68
2022/11/11 08:53:23;;;;;;;15.20;6.82;;;8.00;99.90;;;;;;4989183;28;20161;-68
2022/11/11 08:55:49;;;;;;;14.95;6.78;;;8.10;99.90;;;;;;4976987;28;20526;-68
2022/11/11 08:58:14;;;;;;;12.07;6.13;;;8.20;99.90;;;;;;4977111;28;20062;-68
2022/11/11 09:00:40;;;;;;;12.07;6.20;;;8.30;99.90;;;;;;4964017;28;20038;-68
2022/11/11 09:03:09;;;;;;;17.42;7.15;;;8.30;99.90;;;;;;4978919;28;20034;-68
2022/11/11 09:05:37;;;;;;;14.70;7.50;;;8.40;99.90;;;;;;4982857;28;20504;-68
2022/11/11 09:08:07;;;;;;;11.55;5.65;;;8.50;99.90;;;;;;4983329;28;20045;-68
2022/11/11 09:10:36;;;;;;;12.55;6.55;;;8.50;99.90;;;;;;4978650;28;20022;-68
2022/11/11 09:13:02;;;;;;;10.68;5.18;;;8.50;99.90;;;;;;4984373;28;20094;-68
2022/11/11 09:15:28;;;;;;;13.70;5.82;;;8.50;99.90;;;;;;4980760;28;20114;-67
2022/11/11 09:17:54;;;;;;;13.40;6.43;;;8.60;99.90;;;;;;4984815;28;20145;-68
2022/11/11 09:20:20;;;;;;;10.63;5.88;;;8.70;99.90;;;;;;4980023;28;20113;-68
2022/11/11 09:22:48;;;;;;;12.85;6.15;;;8.70;99.90;;;;;;4983108;28;20052;-68
2022/11/11 09:25:14;;;;;;;12.00;6.07;;;8.80;99.90;;;;;;4979057;28;20031;-68
2022/11/11 09:27:40;;;;;;;12.25;6.50;;;8.90;99.90;;;;;;4979427;28;20027;-68
2022/11/11 09:30:07;;;;;;;12.13;5.97;;;9.00;99.90;;;;;;4988203;28;20050;-68
2022/11/11 09:32:32;;;;;;;12.75;6.50;;;9.00;99.90;;;;;;4987359;28;20101;-68
2022/11/11 09:34:59;;;;;;;10.65;6.60;;;9.20;99.90;;;;;;4983176;28;20022;-67
2022/11/11 09:37:25;;;;;;;9.35;5.25;;;9.40;99.90;;;;;;4977386;28;20030;-68
2022/11/11 09:39:50;;;;;;;10.65;6.13;;;9.60;99.90;;;;;;4986094;28;20495;-68
2022/11/11 09:42:16;;;;;;;10.45;5.93;;;9.80;99.90;;;;;;4985324;28;20034;-68
2022/11/11 09:45:32;;;;;;;12.93;6.38;;;9.70;99.90;;;;;;4983156;28;20038;-68
2022/11/11 09:48:07;;;;;;;10.75;5.63;;;9.80;99.90;;;;;;4979987;28;20485;-68
2022/11/11 09:50:36;;;;;;;10.30;5.88;;;9.80;99.90;;;;;;4988204;28;20124;-68
2022/11/11 09:53:16;;;;;;;10.15;5.07;;;9.90;99.90;;;;;;4985481;28;20026;-68
2022/11/11 09:56:07;;;;;;;12.75;5.45;;;10.00;99.90;;;;;;4980863;28;20038;-68
2022/11/11 09:58:55;;;;;;;10.57;5.32;;;10.00;99.90;;;;;;4986270;28;20063;-68
2022/11/11 10:01:50;;;;;;;9.27;4.97;;;10.10;99.90;;;;;;4962356;28;20051;-67
2022/11/11 10:04:51;;;;;;;8.35;4.90;;;10.10;99.90;;;;;;4985609;28;20077;-68
2022/11/11 10:07:35;;;;;;;12.05;5.75;;;10.20;99.90;;;;;;4970989;28;20035;-68
2022/11/11 10:10:44;;;;;;;8.48;4.57;;;10.30;99.90;;;;;;4988624;28;20065;-68
2022/11/11 10:13:21;;;;;;;6.43;4.38;;;10.30;99.90;;;;;;4979393;28;20047;-67
2022/11/11 10:16:05;;;;;;;6.70;4.00;;;10.40;99.90;;;;;;4979097;28;20514;-68
2022/11/11 10:18:49;;;;;;;11.18;4.85;;;10.40;99.90;;;;;;4974300;28;20042;-67
2022/11/11 10:21:23;;;;;;;7.90;4.43;;;10.50;99.90;;;;;;4980879;28;20122;-68
2022/11/11 10:23:54;;;;;;;10.60;4.57;;;10.50;99.90;;;;;;4979430;28;20290;-67
2022/11/11 10:26:40;;;;;;;8.20;4.35;;;10.50;99.90;;;;;;4983164;28;20042;-68
2022/11/11 10:29:14;;;;;;;7.25;3.60;;;10.50;99.90;;;;;;4982443;28;20030;-68
2022/11/11 10:31:41;;;;;;;7.85;3.92;;;10.60;99.90;;;;;;4979109;28;20054;-68
2022/11/11 10:34:12;;;;;;;11.10;4.45;;;10.60;99.90;;;;;;4987295;28;20030;-68
2022/11/11 10:36:51;;;;;;;6.78;3.85;;;10.80;99.90;;;;;;4980832;28;20034;-67
2022/11/11 10:39:26;;;;;;;7.40;4.18;;;11.00;99.90;;;;;;4986299;28;20030;-68
2022/11/11 10:41:52;;;;;;;5.82;4.03;;;11.10;99.90;;;;;;4975860;28;20030;-67
2022/11/11 10:44:24;;;;;;;12.82;3.45;;;11.10;99.90;;;;;;4986798;28;20026;-68
2022/11/11 10:47:18;;;;;;;6.85;3.65;;;11.10;99.90;;;;;;4984539;28;20045;-68
2022/11/11 10:50:21;;;;;;;5.50;3.47;;;11.10;99.90;;;;;;4980033;28;20066;-68
2022/11/11 10:52:55;;;;;;;6.82;3.50;;;11.30;99.90;;;;;;4981046;28;20365;-68
2022/11/11 10:55:56;;;;;;;4.60;3.25;;;11.40;99.90;;;;;;4988933;28;20034;-68
2022/11/11 10:58:26;;;;;;;8.93;3.70;;;11.50;99.90;;;;;;4973956;28;20445;-67
2022/11/11 11:00:53;;;;;;;8.30;3.47;;;11.60;99.90;;;;;;4972100;28;20074;-68
2022/11/11 11:03:29;;;;;;;5.32;3.08;;;11.70;99.90;;;;;;4991543;28;20050;-68
2022/11/11 11:06:19;;;;;;;7.75;3.92;;;11.80;99.90;;;;;;4991723;28;20014;-67
2022/11/11 11:08:50;;;;;;;5.53;2.83;;;11.80;99.90;;;;;;4991538;28;20472;-67
2022/11/11 11:11:20;;;;;;;8.43;2.80;;;11.90;99.90;;;;;;4983656;28;20039;-68
2022/11/11 11:13:54;;;;;;;4.38;2.70;;;12.00;99.90;;;;;;4989598;28;20054;-67
2022/11/11 11:16:22;;;;;;;;;;;11.90;99.90;;;;;;4979093;28;20082;-68
2022/11/11 11:19:17;;;;;;;5.40;2.78;;;12.00;99.90;;;;;;4982738;28;21860;-68
2022/11/11 11:21:58;;;;;;;5.20;3.38;;;12.00;99.90;;;;;;4977722;28;20100;-68
2022/11/11 11:24:30;;;;;;;6.60;3.15;;;12.00;99.90;;;;;;4984689;28;20487;-68
2022/11/11 11:26:58;;;;;;;6.25;3.20;;;12.10;99.90;;;;;;4988125;28;20400;-68
2022/11/11 11:29:41;;;;;;;7.03;2.95;;;12.20;99.90;;;;;;4986406;28;20114;-68
2022/11/11 11:32:22;;;;;;;8.75;2.65;;;12.20;99.90;;;;;;4982823;28;20042;-68
2022/11/11 11:34:53;;;;;;;5.78;2.78;;;12.30;99.90;;;;;;4977615;28;20026;-67
2022/11/11 11:37:24;;;;;;;3.55;2.28;;;12.40;99.90;;;;;;4982139;28;20559;-68
2022/11/11 11:40:06;;;;;;;6.75;2.83;;;12.50;99.90;;;;;;4982597;28;20036;-67
2022/11/11 11:42:34;;;;;;;4.28;2.10;;;12.50;99.90;;;;;;4986603;28;20145;-68
2022/11/11 11:45:24;;;;;;;6.03;2.30;;;12.60;99.90;;;;;;4990581;28;20471;-68
2022/11/11 11:47:58;;;;;;;4.05;2.30;;;12.60;99.90;;;;;;4977864;28;20019;-67
2022/11/11 11:50:39;;;;;;;5.80;2.65;;;12.60;99.90;;;;;;4985012;28;20377;-68
2022/11/11 11:53:08;;;;;;;5.53;2.50;;;12.70;99.90;;;;;;4979165;28;20373;-68
2022/11/11 11:55:48;;;;;;;3.47;1.85;;;12.60;99.90;;;;;;4984704;28;20093;-67
2022/11/11 11:58:45;;;;;;;3.42;1.75;;;12.70;99.90;;;;;;4980547;28;20046;-67
2022/11/11 12:01:38;;;;;;;3.30;2.03;;;12.70;99.90;;;;;;4964932;28;20840;-68
2022/11/11 12:04:30;;;;;;;4.20;2.47;;;12.80;99.90;;;;;;4987693;28;20026;-68
2022/11/11 12:07:03;;;;;;;4.60;1.45;;;12.80;99.90;;;;;;4982992;28;20050;-67
2022/11/11 12:09:51;;;;;;;5.10;1.70;;;12.90;99.90;;;;;;4981233;28;20084;-68
2022/11/11 12:12:47;;;;;;;2.47;1.98;;;13.00;99.90;;;;;;4986068;28;20053;-68
2022/11/11 12:15:38;;;;;;;2.60;1.65;;;13.10;99.90;;;;;;4985948;28;20436;-67
2022/11/11 12:18:15;;;;;;;5.97;1.98;;;13.10;99.90;;;;;;4981433;28;20022;-68
2022/11/11 12:20:49;;;;;;;4.45;2.30;;;13.20;99.90;;;;;;4975299;28;21938;-68
2022/11/11 12:23:33;;;;;;;;;;;13.20;99.90;;;;;;4982418;28;20027;-68
2022/11/11 12:26:11;;;;;;;6.32;1.70;;;13.30;99.90;;;;;;4981045;28;21149;-67
2022/11/11 12:28:36;;;;;;;16.38;4.57;;;13.30;99.90;;;;;;4987250;28;20402;-68
2022/11/11 12:31:43;;;;;;;10.75;4.45;;;13.30;99.90;;;;;;4984933;28;20023;-67
2022/11/11 12:34:32;;;;;;;5.88;2.00;;;13.40;99.90;;;;;;4969533;28;20051;-68
2022/11/11 12:37:31;;;;;;;5.32;1.80;;;13.30;99.90;;;;;;4983275;28;20026;-68
2022/11/11 12:40:11;;;;;;;3.05;1.35;;;13.40;99.90;;;;;;4980566;28;20501;-68
2022/11/11 12:43:01;;;;;;;2.22;1.90;;;13.40;99.90;;;;;;4991249;28;20031;-68
2022/11/11 12:45:53;;;;;;;3.15;1.10;;;13.50;99.90;;;;;;4983489;28;20030;-68
2022/11/11 12:48:40;;;;;;;2.40;1.30;;;13.40;99.90;;;;;;4979442;28;20022;-67
2022/11/11 12:51:30;;;;;;;4.57;1.33;;;13.40;99.90;;;;;;4978561;28;20051;-68
2022/11/11 12:54:10;;;;;;;3.97;1.42;;;13.50;99.90;;;;;;5000897;28;20022;-68
2022/11/11 12:57:01;;;;;;;3.63;1.73;;;13.40;99.90;;;;;;4975522;28;20022;-68
2022/11/11 12:59:38;;;;;;;3.60;1.67;;;13.40;99.90;;;;;;4987289;28;20085;-68
2022/11/11 13:02:12;;;;;;;4.97;1.73;;;13.40;99.90;;;;;;4967781;28;20081;-68
2022/11/11 13:04:52;;;;;;;3.25;1.33;;;13.40;99.90;;;;;;4981572;28;20050;-68
2022/11/11 13:07:34;;;;;;;2.85;1.30;;;13.30;99.90;;;;;;4980994;28;20026;-68
2022/11/11 13:09:59;;;;;;;2.90;1.52;;;13.30;99.90;;;;;;4984487;28;20077;-68
2022/11/11 13:12:32;;;;;;;4.57;1.98;;;13.30;99.90;;;;;;4983824;28;20128;-68
2022/11/11 13:15:21;;;;;;;5.65;1.65;;;13.40;99.90;;;;;;4983452;28;20122;-68
2022/11/11 13:17:46;;;;;;;4.85;2.10;;;13.40;99.90;;;;;;4982698;28;20026;-68
2022/11/11 13:20:49;;;;;;;5.10;1.80;;;13.30;99.90;;;;;;4983479;28;20065;-68
2022/11/11 13:23:14;;;;;;;1.98;1.20;;;13.30;99.90;;;;;;4987247;28;20030;-68
2022/11/11 13:25:55;;;;;;;4.38;1.30;;;13.20;99.90;;;;;;4976738;28;20586;-68
2022/11/11 13:28:29;;;;;;;2.35;1.17;;;13.20;99.90;;;;;;4975618;28;20038;-68
2022/11/11 13:31:13;;;;;;;2.55;1.55;;;13.10;99.90;;;;;;4979525;28;20073;-68
2022/11/11 13:33:49;;;;;;;1.98;1.10;;;13.10;99.90;;;;;;4977526;28;20031;-68
2022/11/11 13:36:17;;;;;;;3.80;1.13;;;13.10;99.90;;;;;;4981297;28;20034;-67
2022/11/11 13:38:53;;;;;;;2.97;1.50;;;13.10;99.90;;;;;;4979857;28;20035;-68
2022/11/11 13:41:30;;;;;;;3.65;1.10;;;13.20;99.90;;;;;;4985542;28;20026;-68
2022/11/11 13:44:06;;;;;;;1.75;1.33;;;13.20;99.90;;;;;;4981291;28;20014;-68
2022/11/11 13:46:45;;;;;;;2.15;1.10;;;13.10;99.90;;;;;;4979831;28;20030;-68
2022/11/11 13:49:37;;;;;;;2.72;1.15;;;13.20;99.90;;;;;;4982761;28;20488;-68
2022/11/11 13:52:19;;;;;;;3.20;1.55;;;13.10;99.90;;;;;;4979077;28;20078;-68
2022/11/11 13:54:52;;;;;;;4.07;1.40;;;13.10;99.90;;;;;;4980183;28;20608;-68
2022/11/11 13:57:22;;;;;;;1.65;1.30;;;13.10;99.90;;;;;;4978427;28;20117;-68
2022/11/11 14:00:06;;;;;;;3.33;1.70;;;13.10;99.90;;;;;;4981853;28;20038;-68
2022/11/11 14:02:33;;;;;;;2.42;1.42;;;13.00;99.90;;;;;;4966884;28;20038;-67
2022/11/11 14:05:02;;;;;;;1.25;1.15;;;13.00;99.90;;;;;;4990846;28;20086;-67
2022/11/11 14:07:43;;;;;;;2.20;1.83;;;12.90;99.90;;;;;;4974044;28;20022;-68
2022/11/11 14:10:29;;;;;;;3.10;1.35;;;12.90;99.90;;;;;;4984666;28;20076;-68
2022/11/11 14:12:56;;;;;;;4.78;1.42;;;12.80;99.90;;;;;;4977111;28;20543;-68
2022/11/11 14:15:48;;;;;;;2.25;1.50;;;12.70;99.90;;;;;;4983001;28;20118;-68
2022/11/11 14:18:17;;;;;;;2.85;1.15;;;12.70;99.90;;;;;;4988148;28;20045;-68
2022/11/11 14:20:45;;;;;;;1.70;1.17;;;12.60;99.90;;;;;;4986918;28;20026;-68
2022/11/11 14:23:33;;;;;;;2.33;1.35;;;12.60;99.90;;;;;;4987322;28;20030;-68
2022/11/11 14:26:11;;;;;;;2.53;1.38;;;12.60;99.90;;;;;;4972677;28;20050;-68
2022/11/11 14:28:54;;;;;;;3.33;1.33;;;12.60;99.90;;;;;;4984582;28;20038;-68